sensor_id;sensor_type;location;lat;lon;timestamp;pressure;altitude;pressure_sealevel;temperature;humidity
64862;BME280;62652;42.274;-71.436;2023-07-08T00:00:04;100400.0;;;27.722222222222225;100.0
64862;BME280;62652;42.274;-71.436;2023-07-08T00:01:00;100400.0;;;27.722222222222225;100.0
64862;BME280;62652;42.274;-71.436;2023-07-08T00:02:00;100400.0;;;27.722222222222225;100.0
64862;BME280;62652;42.274;-71.436;2023-07-08T00:03:00;100400.0;;;27.722222222222225;100.0
64862;BME280;62652;42.274;-71.436;2023-07-08T00:04:00;100400.0;;;27.61111111111111;100.0
64862;BME280;62652;42.274;-71.436;2023-07-08T00:05:00;100400.0;;;27.61111111111111;100.0
64862;BME280;62652;42.274;-71.436;2023-07-08T00:06:00;100400.0;;;27.722222222222225;100.0
64862;BME280;62652;42.274;-71.436;2023-07-08T00:07:01;100410.0;;;27.61111111111111;100.0
64862;BME280;62652;42.274;-71.436;2023-07-08T00:08:01;100410.0;;;27.61111111111111;100.0
64862;BME280;62652;42.274;-71.436;2023-07-08T00:09:01;100420.0;;;27.61111111111111;100.0
64862;BME280;62652;42.274;-71.436;2023-07-08T00:10:00;100410.0;;;27.61111111111111;100.0
64862;BME280;62652;42.274;-71.436;2023-07-08T00:11:01;100410.0;;;27.61111111111111;100.0
64862;BME280;62652;42.274;-71.436;2023-07-08T00:12:00;100410.0;;;27.61111111111111;100.0
64862;BME280;62652;42.274;-71.436;2023-07-08T00:13:00;100410.0;;;27.5;100.0
64862;BME280;62652;42.274;-71.436;2023-07-08T00:14:00;100410.0;;;27.5;100.0
64862;BME280;62652;42.274;-71.436;2023-07-08T00:15:00;100400.0;;;27.5;100.0
64862;BME280;62652;42.274;-71.436;2023-07-08T00:16:00;100400.0;;;27.38888888888889;100.0
64862;BME280;62652;42.274;-71.436;2023-07-08T00:17:00;100400.0;;;27.38888888888889;100.0
64862;BME280;62652;42.274;-71.436;2023-07-08T00:18:01;100400.0;;;27.38888888888889;100.0
64862;BME280;62652;42.274;-71.436;2023-07-08T00:19:00;100400.0;;;27.38888888888889;100.0
64862;BME280;62652;42.274;-71.436;2023-07-08T00:20:00;100400.0;;;27.38888888888889;100.0
64862;BME280;62652;42.274;-71.436;2023-07-08T00:21:00;100400.0;;;27.277777777777775;100.0
64862;BME280;62652;42.274;-71.436;2023-07-08T00:22:01;100410.0;;;27.277777777777775;100.0
64862;BME280;62652;42.274;-71.436;2023-07-08T00:23:01;100410.0;;;27.22222222222222;100.0
64862;BME280;62652;42.274;-71.436;2023-07-08T00:24:01;100410.0;;;27.22222222222222;100.0
64862;BME280;62652;42.274;-71.436;2023-07-08T00:25:00;100410.0;;;27.22222222222222;100.0
64862;BME280;62652;42.274;-71.436;2023-07-08T00:26:00;100410.0;;;27.22222222222222;100.0
64862;BME280;62652;42.274;-71.436;2023-07-08T00:27:01;100410.0;;;27.22222222222222;100.0
64862;BME280;62652;42.274;-71.436;2023-07-08T00:28:01;100420.0;;;27.22222222222222;100.0
64862;BME280;62652;42.274;-71.436;2023-07-08T00:29:00;100420.0;;;27.22222222222222;100.0
64862;BME280;62652;42.274;-71.436;2023-07-08T00:30:00;100420.0;;;27.11111111111111;100.0
64862;BME280;62652;42.274;-71.436;2023-07-08T00:31:01;100410.0;;;27.11111111111111;100.0
64862;BME280;62652;42.274;-71.436;2023-07-08T00:32:00;100420.0;;;26.999999999999996;100.0
64862;BME280;62652;42.274;-71.436;2023-07-08T00:33:01;100420.0;;;26.999999999999996;100.0
64862;BME280;62652;42.274;-71.436;2023-07-08T00:34:01;100420.0;;;26.999999999999996;100.0
64862;BME280;62652;42.274;-71.436;2023-07-08T00:35:00;100420.0;;;26.999999999999996;100.0
64862;BME280;62652;42.274;-71.436;2023-07-08T00:36:01;100420.0;;;26.888888888888893;100.0
64862;BME280;62652;42.274;-71.436;2023-07-08T00:37:01;100420.0;;;26.888888888888893;100.0
64862;BME280;62652;42.274;-71.436;2023-07-08T00:38:01;100420.0;;;26.888888888888893;100.0
64862;BME280;62652;42.274;-71.436;2023-07-08T00:39:00;100430.0;;;26.888888888888893;100.0
64862;BME280;62652;42.274;-71.436;2023-07-08T00:40:01;100430.0;;;26.888888888888893;100.0
64862;BME280;62652;42.274;-71.436;2023-07-08T00:41:06;100430.0;;;26.888888888888893;100.0
64862;BME280;62652;42.274;-71.436;2023-07-08T00:42:01;100430.0;;;26.888888888888893;100.0
64862;BME280;62652;42.274;-71.436;2023-07-08T00:43:03;100430.0;;;26.888888888888893;100.0
64862;BME280;62652;42.274;-71.436;2023-07-08T00:44:01;100430.0;;;26.888888888888893;100.0
64862;BME280;62652;42.274;-71.436;2023-07-08T00:45:01;100430.0;;;26.77777777777778;100.0
64862;BME280;62652;42.274;-71.436;2023-07-08T00:46:08;100440.0;;;26.77777777777778;100.0
64862;BME280;62652;42.274;-71.436;2023-07-08T00:47:04;100440.0;;;26.888888888888893;100.0
64862;BME280;62652;42.274;-71.436;2023-07-08T00:49:14;100440.0;;;26.77777777777778;100.0
64862;BME280;62652;42.274;-71.436;2023-07-08T00:50:03;100440.0;;;26.77777777777778;100.0
64862;BME280;62652;42.274;-71.436;2023-07-08T00:51:01;100440.0;;;26.77777777777778;100.0
64862;BME280;62652;42.274;-71.436;2023-07-08T00:52:15;100450.0;;;26.77777777777778;100.0
64862;BME280;62652;42.274;-71.436;2023-07-08T00:54:00;100450.0;;;26.77777777777778;100.0
64862;BME280;62652;42.274;-71.436;2023-07-08T00:55:04;100450.0;;;26.77777777777778;100.0
64862;BME280;62652;42.274;-71.436;2023-07-08T00:56:03;100440.0;;;26.77777777777778;100.0
64862;BME280;62652;42.274;-71.436;2023-07-08T00:57:03;100440.0;;;26.722222222222218;100.0
64862;BME280;62652;42.274;-71.436;2023-07-08T00:58:00;100440.0;;;26.722222222222218;100.0
64862;BME280;62652;42.274;-71.436;2023-07-08T00:59:04;100440.0;;;26.611111111111114;100.0
64862;BME280;62652;42.274;-71.436;2023-07-08T01:00:04;100440.0;;;26.611111111111114;100.0
64862;BME280;62652;42.274;-71.436;2023-07-08T01:01:02;100440.0;;;26.611111111111114;100.0
64862;BME280;62652;42.274;-71.436;2023-07-08T01:02:04;100440.0;;;26.611111111111114;100.0
64862;BME280;62652;42.274;-71.436;2023-07-08T01:03:01;100440.0;;;26.611111111111114;100.0
64862;BME280;62652;42.274;-71.436;2023-07-08T01:04:04;100440.0;;;26.611111111111114;100.0
64862;BME280;62652;42.274;-71.436;2023-07-08T01:05:05;100440.0;;;26.611111111111114;100.0
64862;BME280;62652;42.274;-71.436;2023-07-08T01:06:01;100440.0;;;26.611111111111114;100.0
64862;BME280;62652;42.274;-71.436;2023-07-08T01:07:01;100440.0;;;26.611111111111114;100.0
64862;BME280;62652;42.274;-71.436;2023-07-08T01:08:02;100440.0;;;26.611111111111114;100.0
64862;BME280;62652;42.274;-71.436;2023-07-08T01:09:03;100440.0;;;26.611111111111114;100.0
64862;BME280;62652;42.274;-71.436;2023-07-08T01:10:03;100440.0;;;26.611111111111114;100.0
64862;BME280;62652;42.274;-71.436;2023-07-08T01:11:03;100440.0;;;26.611111111111114;100.0
64862;BME280;62652;42.274;-71.436;2023-07-08T01:12:05;100440.0;;;26.611111111111114;100.0
64862;BME280;62652;42.274;-71.436;2023-07-08T01:13:02;100440.0;;;26.611111111111114;100.0
64862;BME280;62652;42.274;-71.436;2023-07-08T01:14:01;100440.0;;;26.611111111111114;100.0
64862;BME280;62652;42.274;-71.436;2023-07-08T01:15:02;100440.0;;;26.5;100.0
64862;BME280;62652;42.274;-71.436;2023-07-08T01:16:01;100440.0;;;26.5;100.0
64862;BME280;62652;42.274;-71.436;2023-07-08T01:17:01;100440.0;;;26.5;100.0
64862;BME280;62652;42.274;-71.436;2023-07-08T01:18:01;100440.0;;;26.5;100.0
64862;BME280;62652;42.274;-71.436;2023-07-08T01:19:01;100440.0;;;26.5;100.0
64862;BME280;62652;42.274;-71.436;2023-07-08T01:20:02;100440.0;;;26.5;100.0
64862;BME280;62652;42.274;-71.436;2023-07-08T01:22:02;100450.0;;;26.5;100.0
64862;BME280;62652;42.274;-71.436;2023-07-08T01:23:00;100440.0;;;26.5;100.0
64862;BME280;62652;42.274;-71.436;2023-07-08T01:24:02;100450.0;;;26.5;100.0
64862;BME280;62652;42.274;-71.436;2023-07-08T01:25:01;100440.0;;;26.5;100.0
64862;BME280;62652;42.274;-71.436;2023-07-08T01:26:01;100440.0;;;26.5;100.0
64862;BME280;62652;42.274;-71.436;2023-07-08T01:27:02;100440.0;;;26.5;100.0
64862;BME280;62652;42.274;-71.436;2023-07-08T01:28:01;100440.0;;;26.5;100.0
64862;BME280;62652;42.274;-71.436;2023-07-08T01:29:02;100440.0;;;26.5;100.0
64862;BME280;62652;42.274;-71.436;2023-07-08T01:30:03;100440.0;;;26.38888888888889;100.0
64862;BME280;62652;42.274;-71.436;2023-07-08T01:31:00;100440.0;;;26.38888888888889;100.0
64862;BME280;62652;42.274;-71.436;2023-07-08T01:32:01;100430.0;;;26.5;100.0
64862;BME280;62652;42.274;-71.436;2023-07-08T01:33:04;100430.0;;;26.38888888888889;100.0
64862;BME280;62652;42.274;-71.436;2023-07-08T01:34:00;100440.0;;;26.38888888888889;100.0
64862;BME280;62652;42.274;-71.436;2023-07-08T01:35:01;100440.0;;;26.38888888888889;100.0
64862;BME280;62652;42.274;-71.436;2023-07-08T01:36:01;100440.0;;;26.38888888888889;100.0
64862;BME280;62652;42.274;-71.436;2023-07-08T01:37:04;100440.0;;;26.38888888888889;100.0
64862;BME280;62652;42.274;-71.436;2023-07-08T01:38:03;100440.0;;;26.38888888888889;100.0
64862;BME280;62652;42.274;-71.436;2023-07-08T01:39:01;100440.0;;;26.27777777777778;100.0
64862;BME280;62652;42.274;-71.436;2023-07-08T01:40:15;100440.0;;;26.27777777777778;100.0
64862;BME280;62652;42.274;-71.436;2023-07-08T01:41:00;100440.0;;;26.22222222222222;100.0
64862;BME280;62652;42.274;-71.436;2023-07-08T01:42:01;100440.0;;;26.22222222222222;100.0
64862;BME280;62652;42.274;-71.436;2023-07-08T01:43:02;100440.0;;;26.22222222222222;100.0
64862;BME280;62652;42.274;-71.436;2023-07-08T01:44:01;100430.0;;;26.22222222222222;100.0
64862;BME280;62652;42.274;-71.436;2023-07-08T01:45:00;100430.0;;;26.22222222222222;100.0
64862;BME280;62652;42.274;-71.436;2023-07-08T01:46:02;100430.0;;;26.22222222222222;100.0
64862;BME280;62652;42.274;-71.436;2023-07-08T01:47:06;100430.0;;;26.22222222222222;100.0
64862;BME280;62652;42.274;-71.436;2023-07-08T01:48:03;100430.0;;;26.22222222222222;100.0
64862;BME280;62652;42.274;-71.436;2023-07-08T01:49:01;100420.0;;;26.22222222222222;100.0
64862;BME280;62652;42.274;-71.436;2023-07-08T01:50:01;100420.0;;;26.22222222222222;100.0
64862;BME280;62652;42.274;-71.436;2023-07-08T01:51:04;100410.0;;;26.22222222222222;100.0
64862;BME280;62652;42.274;-71.436;2023-07-08T01:52:01;100410.0;;;26.22222222222222;100.0
64862;BME280;62652;42.274;-71.436;2023-07-08T01:53:05;100410.0;;;26.22222222222222;100.0
64862;BME280;62652;42.274;-71.436;2023-07-08T01:54:00;100410.0;;;26.11111111111111;100.0
64862;BME280;62652;42.274;-71.436;2023-07-08T01:55:01;100410.0;;;26.11111111111111;100.0
64862;BME280;62652;42.274;-71.436;2023-07-08T01:56:01;100410.0;;;26.11111111111111;100.0
64862;BME280;62652;42.274;-71.436;2023-07-08T01:57:01;100410.0;;;26.11111111111111;100.0
64862;BME280;62652;42.274;-71.436;2023-07-08T01:58:01;100420.0;;;26.11111111111111;100.0
64862;BME280;62652;42.274;-71.436;2023-07-08T01:59:00;100410.0;;;26.0;100.0
64862;BME280;62652;42.274;-71.436;2023-07-08T02:00:00;100420.0;;;26.0;100.0
64862;BME280;62652;42.274;-71.436;2023-07-08T02:01:01;100420.0;;;26.0;100.0
64862;BME280;62652;42.274;-71.436;2023-07-08T02:02:01;100410.0;;;26.0;100.0
64862;BME280;62652;42.274;-71.436;2023-07-08T02:03:00;100420.0;;;26.0;100.0
64862;BME280;62652;42.274;-71.436;2023-07-08T02:04:00;100410.0;;;26.0;100.0
64862;BME280;62652;42.274;-71.436;2023-07-08T02:05:01;100410.0;;;26.0;100.0
64862;BME280;62652;42.274;-71.436;2023-07-08T02:06:01;100410.0;;;26.0;100.0
64862;BME280;62652;42.274;-71.436;2023-07-08T02:07:01;100410.0;;;26.0;100.0
64862;BME280;62652;42.274;-71.436;2023-07-08T02:08:01;100410.0;;;26.0;100.0
64862;BME280;62652;42.274;-71.436;2023-07-08T02:09:00;100410.0;;;26.0;100.0
64862;BME280;62652;42.274;-71.436;2023-07-08T02:10:01;100410.0;;;25.888888888888886;100.0
64862;BME280;62652;42.274;-71.436;2023-07-08T02:11:00;100410.0;;;25.888888888888886;100.0
64862;BME280;62652;42.274;-71.436;2023-07-08T02:12:00;100410.0;;;25.888888888888886;100.0
64862;BME280;62652;42.274;-71.436;2023-07-08T02:13:00;100410.0;;;25.888888888888886;100.0
64862;BME280;62652;42.274;-71.436;2023-07-08T02:14:00;100410.0;;;26.0;100.0
64862;BME280;62652;42.274;-71.436;2023-07-08T02:15:01;100410.0;;;25.888888888888886;100.0
64862;BME280;62652;42.274;-71.436;2023-07-08T02:16:01;100410.0;;;25.888888888888886;100.0
64862;BME280;62652;42.274;-71.436;2023-07-08T02:17:00;100400.0;;;25.777777777777782;100.0
64862;BME280;62652;42.274;-71.436;2023-07-08T02:18:00;100400.0;;;25.777777777777782;100.0
64862;BME280;62652;42.274;-71.436;2023-07-08T02:19:00;100390.0;;;25.777777777777782;100.0
64862;BME280;62652;42.274;-71.436;2023-07-08T02:20:01;100390.0;;;25.888888888888886;100.0
64862;BME280;62652;42.274;-71.436;2023-07-08T02:21:01;100390.0;;;25.777777777777782;100.0
64862;BME280;62652;42.274;-71.436;2023-07-08T02:22:00;100390.0;;;25.888888888888886;100.0
64862;BME280;62652;42.274;-71.436;2023-07-08T02:23:01;100390.0;;;25.777777777777782;100.0
64862;BME280;62652;42.274;-71.436;2023-07-08T02:24:01;100390.0;;;25.72222222222222;100.0
64862;BME280;62652;42.274;-71.436;2023-07-08T02:25:01;100390.0;;;25.72222222222222;100.0
64862;BME280;62652;42.274;-71.436;2023-07-08T02:26:00;100390.0;;;25.72222222222222;100.0
64862;BME280;62652;42.274;-71.436;2023-07-08T02:27:00;100390.0;;;25.72222222222222;100.0
64862;BME280;62652;42.274;-71.436;2023-07-08T02:28:00;100390.0;;;25.72222222222222;100.0
64862;BME280;62652;42.274;-71.436;2023-07-08T02:29:01;100390.0;;;25.777777777777782;100.0
64862;BME280;62652;42.274;-71.436;2023-07-08T02:30:00;100390.0;;;25.777777777777782;100.0
64862;BME280;62652;42.274;-71.436;2023-07-08T02:31:02;100390.0;;;25.777777777777782;100.0
64862;BME280;62652;42.274;-71.436;2023-07-08T02:32:01;100390.0;;;25.72222222222222;100.0
64862;BME280;62652;42.274;-71.436;2023-07-08T02:33:00;100390.0;;;25.72222222222222;100.0
64862;BME280;62652;42.274;-71.436;2023-07-08T02:34:00;100390.0;;;25.777777777777782;100.0
64862;BME280;62652;42.274;-71.436;2023-07-08T02:35:00;100390.0;;;25.777777777777782;100.0
64862;BME280;62652;42.274;-71.436;2023-07-08T02:36:01;100390.0;;;25.72222222222222;100.0
64862;BME280;62652;42.274;-71.436;2023-07-08T02:37:00;100390.0;;;25.72222222222222;100.0
64862;BME280;62652;42.274;-71.436;2023-07-08T02:38:00;100390.0;;;25.72222222222222;100.0
64862;BME280;62652;42.274;-71.436;2023-07-08T02:39:01;100400.0;;;25.72222222222222;100.0
64862;BME280;62652;42.274;-71.436;2023-07-08T02:40:01;100400.0;;;25.72222222222222;100.0
64862;BME280;62652;42.274;-71.436;2023-07-08T02:41:01;100400.0;;;25.72222222222222;100.0
64862;BME280;62652;42.274;-71.436;2023-07-08T02:42:01;100400.0;;;25.72222222222222;100.0
64862;BME280;62652;42.274;-71.436;2023-07-08T02:43:01;100400.0;;;25.72222222222222;100.0
64862;BME280;62652;42.274;-71.436;2023-07-08T02:44:01;100400.0;;;25.611111111111107;100.0
64862;BME280;62652;42.274;-71.436;2023-07-08T02:45:01;100410.0;;;25.611111111111107;100.0
64862;BME280;62652;42.274;-71.436;2023-07-08T02:46:01;100410.0;;;25.500000000000004;100.0
64862;BME280;62652;42.274;-71.436;2023-07-08T02:47:01;100410.0;;;25.500000000000004;100.0
64862;BME280;62652;42.274;-71.436;2023-07-08T02:48:01;100410.0;;;25.500000000000004;100.0
64862;BME280;62652;42.274;-71.436;2023-07-08T02:49:01;100410.0;;;25.500000000000004;100.0
64862;BME280;62652;42.274;-71.436;2023-07-08T02:50:00;100410.0;;;25.500000000000004;100.0
64862;BME280;62652;42.274;-71.436;2023-07-08T02:51:01;100410.0;;;25.500000000000004;100.0
64862;BME280;62652;42.274;-71.436;2023-07-08T02:52:00;100400.0;;;25.500000000000004;100.0
64862;BME280;62652;42.274;-71.436;2023-07-08T02:53:01;100410.0;;;25.500000000000004;100.0
64862;BME280;62652;42.274;-71.436;2023-07-08T02:54:01;100410.0;;;25.500000000000004;100.0
64862;BME280;62652;42.274;-71.436;2023-07-08T02:55:00;100410.0;;;25.500000000000004;100.0
64862;BME280;62652;42.274;-71.436;2023-07-08T02:56:01;100410.0;;;25.611111111111107;100.0
64862;BME280;62652;42.274;-71.436;2023-07-08T02:57:01;100410.0;;;25.500000000000004;100.0
64862;BME280;62652;42.274;-71.436;2023-07-08T02:58:00;100410.0;;;25.500000000000004;100.0
64862;BME280;62652;42.274;-71.436;2023-07-08T02:59:01;100410.0;;;25.611111111111107;100.0
64862;BME280;62652;42.274;-71.436;2023-07-08T03:00:01;100420.0;;;25.611111111111107;100.0
64862;BME280;62652;42.274;-71.436;2023-07-08T03:01:01;100420.0;;;25.611111111111107;100.0
64862;BME280;62652;42.274;-71.436;2023-07-08T03:02:00;100410.0;;;25.611111111111107;100.0
64862;BME280;62652;42.274;-71.436;2023-07-08T03:03:00;100400.0;;;25.72222222222222;100.0
64862;BME280;62652;42.274;-71.436;2023-07-08T03:04:01;100400.0;;;25.72222222222222;100.0
64862;BME280;62652;42.274;-71.436;2023-07-08T03:05:01;100400.0;;;25.72222222222222;100.0
64862;BME280;62652;42.274;-71.436;2023-07-08T03:06:02;100400.0;;;25.72222222222222;100.0
64862;BME280;62652;42.274;-71.436;2023-07-08T03:07:01;100400.0;;;25.611111111111107;100.0
64862;BME280;62652;42.274;-71.436;2023-07-08T03:08:00;100400.0;;;25.611111111111107;100.0
64862;BME280;62652;42.274;-71.436;2023-07-08T03:09:01;100400.0;;;25.611111111111107;100.0
64862;BME280;62652;42.274;-71.436;2023-07-08T03:10:00;100390.0;;;25.611111111111107;100.0
64862;BME280;62652;42.274;-71.436;2023-07-08T03:11:02;100390.0;;;25.611111111111107;100.0
64862;BME280;62652;42.274;-71.436;2023-07-08T03:12:00;100400.0;;;25.611111111111107;100.0
64862;BME280;62652;42.274;-71.436;2023-07-08T03:13:00;100390.0;;;25.500000000000004;100.0
64862;BME280;62652;42.274;-71.436;2023-07-08T03:14:01;100400.0;;;25.500000000000004;100.0
64862;BME280;62652;42.274;-71.436;2023-07-08T03:15:01;100390.0;;;25.500000000000004;100.0
64862;BME280;62652;42.274;-71.436;2023-07-08T03:16:02;100390.0;;;25.500000000000004;100.0
64862;BME280;62652;42.274;-71.436;2023-07-08T03:17:00;100390.0;;;25.500000000000004;100.0
64862;BME280;62652;42.274;-71.436;2023-07-08T03:18:00;100390.0;;;25.500000000000004;100.0
64862;BME280;62652;42.274;-71.436;2023-07-08T03:19:00;100390.0;;;25.500000000000004;100.0
64862;BME280;62652;42.274;-71.436;2023-07-08T03:20:00;100400.0;;;25.500000000000004;100.0
64862;BME280;62652;42.274;-71.436;2023-07-08T03:21:01;100390.0;;;25.500000000000004;100.0
64862;BME280;62652;42.274;-71.436;2023-07-08T03:22:01;100400.0;;;25.500000000000004;100.0
64862;BME280;62652;42.274;-71.436;2023-07-08T03:23:00;100400.0;;;25.500000000000004;100.0
64862;BME280;62652;42.274;-71.436;2023-07-08T03:24:01;100400.0;;;25.500000000000004;100.0
64862;BME280;62652;42.274;-71.436;2023-07-08T03:25:00;100400.0;;;25.500000000000004;100.0
64862;BME280;62652;42.274;-71.436;2023-07-08T03:26:00;100400.0;;;25.500000000000004;100.0
64862;BME280;62652;42.274;-71.436;2023-07-08T03:27:01;100400.0;;;25.500000000000004;100.0
64862;BME280;62652;42.274;-71.436;2023-07-08T03:28:00;100400.0;;;25.500000000000004;100.0
64862;BME280;62652;42.274;-71.436;2023-07-08T03:29:01;100400.0;;;25.500000000000004;100.0
64862;BME280;62652;42.274;-71.436;2023-07-08T03:30:01;100410.0;;;25.38888888888889;100.0
64862;BME280;62652;42.274;-71.436;2023-07-08T03:31:01;100410.0;;;25.38888888888889;100.0
64862;BME280;62652;42.274;-71.436;2023-07-08T03:32:00;100410.0;;;25.500000000000004;100.0
64862;BME280;62652;42.274;-71.436;2023-07-08T03:33:01;100410.0;;;25.38888888888889;100.0
64862;BME280;62652;42.274;-71.436;2023-07-08T03:34:00;100400.0;;;25.38888888888889;100.0
64862;BME280;62652;42.274;-71.436;2023-07-08T03:35:00;100400.0;;;25.38888888888889;100.0
64862;BME280;62652;42.274;-71.436;2023-07-08T03:36:01;100400.0;;;25.38888888888889;100.0
64862;BME280;62652;42.274;-71.436;2023-07-08T03:37:00;100400.0;;;25.38888888888889;100.0
64862;BME280;62652;42.274;-71.436;2023-07-08T03:38:01;100400.0;;;25.38888888888889;100.0
64862;BME280;62652;42.274;-71.436;2023-07-08T03:39:00;100400.0;;;25.27777777777778;100.0
64862;BME280;62652;42.274;-71.436;2023-07-08T03:40:00;100400.0;;;25.27777777777778;100.0
64862;BME280;62652;42.274;-71.436;2023-07-08T03:41:00;100400.0;;;25.27777777777778;100.0
64862;BME280;62652;42.274;-71.436;2023-07-08T03:42:01;100400.0;;;25.27777777777778;100.0
64862;BME280;62652;42.274;-71.436;2023-07-08T03:43:01;100400.0;;;25.27777777777778;100.0
64862;BME280;62652;42.274;-71.436;2023-07-08T03:44:00;100400.0;;;25.27777777777778;100.0
64862;BME280;62652;42.274;-71.436;2023-07-08T03:45:01;100410.0;;;25.222222222222225;100.0
64862;BME280;62652;42.274;-71.436;2023-07-08T03:46:00;100400.0;;;25.222222222222225;100.0
64862;BME280;62652;42.274;-71.436;2023-07-08T03:47:00;100400.0;;;25.222222222222225;100.0
64862;BME280;62652;42.274;-71.436;2023-07-08T03:48:00;100400.0;;;25.11111111111111;100.0
64862;BME280;62652;42.274;-71.436;2023-07-08T03:49:01;100400.0;;;25.11111111111111;100.0
64862;BME280;62652;42.274;-71.436;2023-07-08T03:50:00;100400.0;;;25.11111111111111;100.0
64862;BME280;62652;42.274;-71.436;2023-07-08T03:51:01;100400.0;;;25.11111111111111;100.0
64862;BME280;62652;42.274;-71.436;2023-07-08T03:52:00;100400.0;;;25.11111111111111;100.0
64862;BME280;62652;42.274;-71.436;2023-07-08T03:53:01;100400.0;;;25.11111111111111;100.0
64862;BME280;62652;42.274;-71.436;2023-07-08T03:54:01;100400.0;;;25.11111111111111;100.0
64862;BME280;62652;42.274;-71.436;2023-07-08T03:55:01;100400.0;;;25.11111111111111;100.0
64862;BME280;62652;42.274;-71.436;2023-07-08T03:56:01;100390.0;;;25.0;100.0
64862;BME280;62652;42.274;-71.436;2023-07-08T03:57:01;100390.0;;;25.0;100.0
64862;BME280;62652;42.274;-71.436;2023-07-08T03:58:00;100390.0;;;25.0;100.0
64862;BME280;62652;42.274;-71.436;2023-07-08T03:59:00;100390.0;;;25.0;100.0
64862;BME280;62652;42.274;-71.436;2023-07-08T04:00:01;100390.0;;;25.0;100.0
64862;BME280;62652;42.274;-71.436;2023-07-08T04:01:00;100390.0;;;25.0;100.0
64862;BME280;62652;42.274;-71.436;2023-07-08T04:02:00;100390.0;;;25.0;100.0
64862;BME280;62652;42.274;-71.436;2023-07-08T04:03:01;100400.0;;;25.0;100.0
64862;BME280;62652;42.274;-71.436;2023-07-08T04:04:01;100390.0;;;25.0;100.0
64862;BME280;62652;42.274;-71.436;2023-07-08T04:05:01;100400.0;;;24.88888888888889;100.0
64862;BME280;62652;42.274;-71.436;2023-07-08T04:06:01;100400.0;;;24.88888888888889;100.0
64862;BME280;62652;42.274;-71.436;2023-07-08T04:07:01;100400.0;;;24.88888888888889;100.0
64862;BME280;62652;42.274;-71.436;2023-07-08T04:08:00;100400.0;;;24.777777777777775;100.0
64862;BME280;62652;42.274;-71.436;2023-07-08T04:09:00;100400.0;;;24.777777777777775;100.0
64862;BME280;62652;42.274;-71.436;2023-07-08T04:10:00;100400.0;;;24.777777777777775;100.0
64862;BME280;62652;42.274;-71.436;2023-07-08T04:11:00;100400.0;;;24.777777777777775;100.0
64862;BME280;62652;42.274;-71.436;2023-07-08T04:12:00;100400.0;;;24.777777777777775;100.0
64862;BME280;62652;42.274;-71.436;2023-07-08T04:13:01;100410.0;;;24.777777777777775;100.0
64862;BME280;62652;42.274;-71.436;2023-07-08T04:14:01;100410.0;;;24.777777777777775;100.0
64862;BME280;62652;42.274;-71.436;2023-07-08T04:15:00;100410.0;;;24.777777777777775;100.0
64862;BME280;62652;42.274;-71.436;2023-07-08T04:16:02;100410.0;;;24.777777777777775;100.0
64862;BME280;62652;42.274;-71.436;2023-07-08T04:17:01;100410.0;;;24.777777777777775;100.0
64862;BME280;62652;42.274;-71.436;2023-07-08T04:18:00;100410.0;;;24.88888888888889;100.0
64862;BME280;62652;42.274;-71.436;2023-07-08T04:19:00;100410.0;;;24.88888888888889;100.0
64862;BME280;62652;42.274;-71.436;2023-07-08T04:20:00;100410.0;;;24.88888888888889;100.0
64862;BME280;62652;42.274;-71.436;2023-07-08T04:21:00;100410.0;;;24.88888888888889;100.0
64862;BME280;62652;42.274;-71.436;2023-07-08T04:22:02;100420.0;;;24.777777777777775;100.0
64862;BME280;62652;42.274;-71.436;2023-07-08T04:23:00;100420.0;;;24.777777777777775;100.0
64862;BME280;62652;42.274;-71.436;2023-07-08T04:24:00;100420.0;;;24.88888888888889;100.0
64862;BME280;62652;42.274;-71.436;2023-07-08T04:25:01;100420.0;;;24.777777777777775;100.0
64862;BME280;62652;42.274;-71.436;2023-07-08T04:26:01;100420.0;;;24.777777777777775;100.0
64862;BME280;62652;42.274;-71.436;2023-07-08T04:27:01;100420.0;;;24.777777777777775;100.0
64862;BME280;62652;42.274;-71.436;2023-07-08T04:28:00;100410.0;;;24.777777777777775;100.0
64862;BME280;62652;42.274;-71.436;2023-07-08T04:29:00;100410.0;;;24.777777777777775;100.0
64862;BME280;62652;42.274;-71.436;2023-07-08T04:30:01;100410.0;;;24.777777777777775;100.0
64862;BME280;62652;42.274;-71.436;2023-07-08T04:31:01;100410.0;;;24.777777777777775;100.0
64862;BME280;62652;42.274;-71.436;2023-07-08T04:32:00;100410.0;;;24.777777777777775;100.0
64862;BME280;62652;42.274;-71.436;2023-07-08T04:33:01;100410.0;;;24.72222222222222;100.0
64862;BME280;62652;42.274;-71.436;2023-07-08T04:34:00;100400.0;;;24.72222222222222;100.0